Vidfoss — V2QK4 — position and weather

sailwx.info

Track history (hours):
 
Tides and Currents Weather Stations Pressure Air Temp Water Temp Dewpoint Dewpoint Depression Visibility Wind Speed Wind Dir Waves Ship Positions

Vidfoss

Last reported at 2017-Jul-24 22:26 UTC. Time now 2017-Jul-24 22:43 UTC.
Position N 62°10' W 006°10'.

Length 93 m; draft 4.2 m.

Type: Cargo ship. MMSI: 305846000.

Date/timePositionNaut miles runAvg speedWind from/ knotsBaromVisibWave heightAir tempDewpointWater temp
2017-Jul-24 22:26N 62°10' W 006°10'512.0
2017-Jul-24 22:00N 62°09' W 006°21'612.3
2017-Jul-24 21:29N 62°10' W 006°34'4 0.4
2017-Jul-24 11:04N 62°15' W 006°38'1 7.3
2017-Jul-24 10:55N 62°13' W 006°38'3 6.8
2017-Jul-24 10:30N 62°11' W 006°35'4 8.5
2017-Jul-24 10:00N 62°08' W 006°29'611.9
2017-Jul-24 09:30N 62°04' W 006°19'612.4
2017-Jul-24 09:00N 61°59' W 006°10'612.4
2017-Jul-24 08:30N 61°55' W 006°02'610.9
2017-Jul-24 08:00N 61°50' W 005°55'610.7
2017-Jul-24 07:29N 61°46' W 005°47'  
2017-Jul-21 22:25N 52°31' E 003°53'512.2
2017-Jul-21 22:00N 52°31' E 004°01'612.1
2017-Jul-21 21:30N 52°31' E 004°11'612.2
2017-Jul-21 21:00N 52°30' E 004°20'611.8
2017-Jul-21 20:30N 52°28' E 004°30'4 7.6
2017-Jul-21 20:01N 52°28' E 004°36'0 0.0
2017-Jul-21 19:31N 52°28' E 004°36'1 2.8
2017-Jul-21 19:00N 52°28' E 004°38'1 1.8
2017-Jul-21 18:28N 52°28' E 004°40'0 0.0
2017-Jul-21 17:58N 52°28' E 004°40'0 0.0
2017-Jul-21 17:25N 52°28' E 004°40'0 0.0
2017-Jul-21 16:58N 52°28' E 004°40'0 0.0
2017-Jul-21 16:29N 52°28' E 004°40'0 0.0
2017-Jul-21 15:59N 52°28' E 004°40'0 0.0
2017-Jul-21 15:29N 52°28' E 004°40'0 0.0
2017-Jul-21 15:00N 52°28' E 004°40'0 0.0
2017-Jul-21 14:30N 52°28' E 004°40'0 0.0
2017-Jul-21 14:00N 52°28' E 004°40'0 0.0
2017-Jul-21 13:28N 52°28' E 004°40'0 0.0
2017-Jul-21 12:58N 52°28' E 004°40'0 0.0
2017-Jul-21 11:56N 52°28' E 004°40'0 0.0
2017-Jul-21 11:29N 52°28' E 004°40'0 0.0
2017-Jul-21 10:59N 52°28' E 004°40'0 0.0
2017-Jul-21 10:30N 52°28' E 004°40'0 0.0
2017-Jul-21 10:00N 52°28' E 004°40'0 0.0
2017-Jul-21 09:30N 52°28' E 004°40'0 0.0
2017-Jul-21 09:00N 52°28' E 004°40'0 0.0
2017-Jul-21 08:28N 52°28' E 004°40'0 0.0
2017-Jul-21 07:55N 52°28' E 004°40'0 0.0
2017-Jul-21 07:28N 52°28' E 004°40'0 0.0
2017-Jul-21 06:59N 52°28' E 004°40'0 0.0
2017-Jul-21 06:29N 52°28' E 004°40'0 0.0
2017-Jul-21 05:59N 52°28' E 004°40'0 0.0
2017-Jul-21 05:30N 52°28' E 004°40'0 0.0
2017-Jul-21 05:00N 52°28' E 004°40'0 0.2
2017-Jul-21 04:30N 52°28' E 004°40'0 0.0
2017-Jul-21 04:00N 52°28' E 004°40'0 0.0
2017-Jul-21 03:30N 52°28' E 004°40'0 0.0
2017-Jul-21 02:30N 52°28' E 004°40'0 0.0
2017-Jul-21 02:00N 52°28' E 004°40'0 0.0
2017-Jul-21 01:30N 52°28' E 004°40'0 0.0
2017-Jul-21 01:00N 52°28' E 004°40'0 0.0
2017-Jul-21 00:30N 52°28' E 004°40'0 0.0
2017-Jul-21 00:00N 52°28' E 004°40'0 0.0
2017-Jul-20 23:30N 52°28' E 004°40'0 0.0
2017-Jul-20 23:00N 52°28' E 004°40'0 0.0
2017-Jul-20 22:30N 52°28' E 004°40'0 0.0
2017-Jul-20 22:00N 52°28' E 004°40'0 0.0
2017-Jul-20 21:30N 52°28' E 004°40'0 0.6
2017-Jul-20 21:00N 52°28' E 004°39'2 4.1
2017-Jul-20 20:30N 52°28' E 004°36'2 4.2
2017-Jul-20 20:00N 52°28' E 004°33'510.2
2017-Jul-20 19:30N 52°32' E 004°29'611.8
2017-Jul-20 19:00N 52°38' E 004°29'611.8
2017-Jul-20 18:28N 52°45' E 004°30'811.6
2017-Jul-20 17:49N 52°52' E 004°31'411.4
2017-Jul-20 17:30N 52°56' E 004°31'32610.6
2017-Jul-19 10:47N 58°22' E 005°10'411.5
2017-Jul-19 10:28N 58°25' E 005°09'511.3
2017-Jul-19 10:01N 58°30' E 005°08'611.5
2017-Jul-19 09:30N 58°36' E 005°07'611.6
2017-Jul-19 09:01N 58°42' E 005°04'611.6
2017-Jul-19 08:30N 58°47' E 005°03'611.8
2017-Jul-19 08:01N 58°53' E 005°01'611.9
2017-Jul-19 07:31N 58°59' E 004°60'611.6
2017-Jul-19 07:00N 59°05' E 004°58'611.5
2017-Jul-19 06:30N 59°11' E 004°57'611.7
2017-Jul-19 06:00N 59°16' E 004°58'611.8
2017-Jul-19 05:30N 59°22' E 004°57'611.9
2017-Jul-19 05:00N 59°28' E 004°57'611.8
2017-Jul-19 04:30N 59°34' E 004°58'611.7
2017-Jul-19 04:00N 59°40' E 004°58'611.6
2017-Jul-19 03:29N 59°46' E 004°58'611.8
2017-Jul-19 03:00N 59°52' E 004°58'611.8
2017-Jul-19 02:30N 59°58' E 004°58'5 9.7
2017-Jul-19 02:00N 60°02' E 005°02'510.1
2017-Jul-19 01:30N 60°04' E 005°11'2 3.5
2017-Jul-19 01:00N 60°06' E 005°13'0 0.0
2017-Jul-19 00:30N 60°06' E 005°13'1 1.0
2017-Jul-19 00:01N 60°06' E 005°12'4 8.4
2017-Jul-18 23:31N 60°05' E 005°04'4 7.3
2017-Jul-18 22:59N 60°09' E 005°05'510.2
2017-Jul-18 22:30N 60°13' E 005°10'611.5
2017-Jul-18 22:00N 60°19' E 005°12'611.2
2017-Jul-18 21:31N 60°24' E 005°07'611.5
2017-Jul-18 21:00N 60°29' E 004°60'612.0
2017-Jul-18 20:30N 60°34' E 004°55'612.0
2017-Jul-18 20:01N 60°40' E 004°51'612.0
2017-Jul-18 19:30N 60°45' E 004°47'610.9
2017-Jul-18 19:00N 60°51' E 004°46'611.7
2017-Jul-18 18:30N 60°57' E 004°45'611.9
2017-Jul-18 18:00N 61°03' E 004°44'611.8
2017-Jul-18 17:30N 61°08' E 004°45'611.2
2017-Jul-18 17:00N 61°14' E 004°43'611.4
2017-Jul-18 16:30N 61°19' E 004°48'611.5
2017-Jul-18 16:00N 61°25' E 004°51'611.3
2017-Jul-18 15:30N 61°29' E 004°59'510.8
2017-Jul-18 15:00N 61°34' E 004°58'1110.6
2017-Jul-18 14:00N 61°45' E 004°59'611.4
2017-Jul-18 13:30N 61°49' E 005°08'5 9.3
2017-Jul-18 12:59N 61°52' E 005°16'510.0
2017-Jul-18 12:30N 61°55' E 005°07'2 3.3
2017-Jul-18 12:00N 61°56' E 005°08'0 0.0
2017-Jul-18 11:30N 61°56' E 005°08'0 0.2
2017-Jul-18 11:00N 61°56' E 005°08'5 9.3
2017-Jul-18 10:30N 62°01' E 005°09'510.9
2017-Jul-18 10:00N 62°06' E 005°06'510.1
2017-Jul-18 09:30N 62°11' E 005°05'5 9.3
2017-Jul-18 09:00N 62°13' E 005°14'510.5
2017-Jul-18 08:31N 62°11' E 005°24'510.0
2017-Jul-18 08:00N 62°11' E 005°35'510.5
2017-Jul-18 07:30N 62°12' E 005°46'5 9.5
2017-Jul-18 06:59N 62°14' E 005°55'5 9.7
2017-Jul-18 06:30N 62°18' E 006°01'5 9.7
2017-Jul-18 06:00N 62°22' E 006°06'5 9.6
2017-Jul-18 05:30N 62°27' E 006°05'2 4.5
2017-Jul-18 05:00N 62°28' E 006°09'0 0.2
2017-Jul-18 04:30N 62°28' E 006°08'0 0.0
2017-Jul-18 04:00N 62°28' E 006°08'0 0.0
2017-Jul-18 03:30N 62°28' E 006°08'0 0.0
2017-Jul-18 02:59N 62°28' E 006°08'0 0.0
2017-Jul-18 02:30N 62°28' E 006°08'0 0.0
2017-Jul-18 02:00N 62°28' E 006°08'0 0.0
2017-Jul-18 01:30N 62°28' E 006°08'0 0.0
2017-Jul-18 01:00N 62°28' E 006°08'0 0.0
2017-Jul-18 00:30N 62°28' E 006°08'0 0.0
2017-Jul-18 00:00N 62°28' E 006°08'0 0.0
2017-Jul-17 23:30N 62°28' E 006°08'0 0.0
2017-Jul-17 23:00N 62°28' E 006°08'0 0.0
2017-Jul-17 22:30N 62°28' E 006°08'0 0.0
2017-Jul-17 21:59N 62°28' E 006°08'0 0.0
2017-Jul-17 21:30N 62°28' E 006°08'0 0.0
2017-Jul-17 21:00N 62°28' E 006°08'2 3.5
2017-Jul-17 20:30N 62°27' E 006°06'4 8.4
2017-Jul-17 19:59N 62°29' E 006°14'3 6.6
2017-Jul-17 19:30N 62°28' E 006°21'0 0.0
2017-Jul-17 19:00N 62°28' E 006°21'0 0.2
2017-Jul-17 18:30N 62°29' E 006°20'5 9.4
2017-Jul-17 18:00N 62°29' E 006°10'5 9.7
2017-Jul-17 17:30N 62°34' E 006°12'5 9.6
2017-Jul-17 17:01N 62°37' E 006°19'510.5
2017-Jul-17 16:30N 62°38' E 006°31'510.2
2017-Jul-17 16:00N 62°39' E 006°42'510.5
2017-Jul-17 15:30N 62°41' E 006°52'610.1
2017-Jul-17 14:56N 62°46' E 006°57'511.5
2017-Jul-17 14:30N 62°51' E 006°58'2 3.7
2017-Jul-17 14:00N 62°53' E 006°58'0 0.0
2017-Jul-17 13:30N 62°53' E 006°58'0 0.0
2017-Jul-17 13:00N 62°53' E 006°58'0 0.0
2017-Jul-17 12:30N 62°53' E 006°58'0 0.0
2017-Jul-17 12:00N 62°53' E 006°58'0 0.0
2017-Jul-17 11:30N 62°53' E 006°58'2 3.6
2017-Jul-17 11:01N 62°53' E 006°54'4 8.9
2017-Jul-17 10:30N 62°58' E 006°52'4 8.9
2017-Jul-17 10:00N 63°00' E 007°01'5 9.3
2017-Jul-17 09:30N 63°02' E 007°10'5 9.6
2017-Jul-17 09:00N 63°03' E 007°20'5 9.8
2017-Jul-17 08:30N 63°06' E 007°30'510.6
2017-Jul-17 08:01N 63°09' E 007°39'510.8
2017-Jul-17 07:30N 63°12' E 007°50'510.6
2017-Jul-17 07:00N 63°14' E 007°60'510.6
2017-Jul-17 06:30N 63°17' E 008°10'510.2
2017-Jul-17 06:00N 63°20' E 008°19'510.3
2017-Jul-17 05:30N 63°23' E 008°28'610.9
2017-Jul-17 05:00N 63°26' E 008°39'611.3
2017-Jul-17 04:30N 63°27' E 008°51'611.2
2017-Jul-17 04:00N 63°29' E 009°03'510.7
2017-Jul-17 03:30N 63°32' E 009°13'510.8
2017-Jul-17 03:00N 63°35' E 009°24'510.4
2017-Jul-17 02:30N 63°39' E 009°29'611.7
2017-Jul-17 02:00N 63°45' E 009°32'611.1
2017-Jul-17 01:30N 63°50' E 009°37'611.5
2017-Jul-17 01:00N 63°54' E 009°46'611.6
2017-Jul-17 00:30N 64°00' E 009°47'610.8
2017-Jul-17 00:00N 64°05' E 009°54'611.4
2017-Jul-16 23:30N 64°08' E 010°05'611.3
2017-Jul-16 23:00N 64°13' E 010°12'510.6
2017-Jul-16 22:30N 64°17' E 010°20'610.8
2017-Jul-16 22:00N 64°22' E 010°23'511.1
2017-Jul-16 21:30N 64°27' E 010°27'510.0
2017-Jul-16 21:00N 64°32' E 010°32'510.3
2017-Jul-16 20:30N 64°36' E 010°40'510.6
2017-Jul-16 20:00N 64°40' E 010°47'510.9
2017-Jul-16 19:30N 64°44' E 010°56'611.3
2017-Jul-16 19:00N 64°48' E 011°06'510.7
2017-Jul-16 18:30N 64°52' E 011°14'0 0.1
2017-Jul-16 18:01N 64°52' E 011°14'1 1.6
2017-Jul-16 17:31N 64°52' E 011°16'510.8
2017-Jul-16 17:00N 64°56' E 011°25'611.1
2017-Jul-16 16:30N 64°59' E 011°35'510.4
2017-Jul-16 16:00N 65°03' E 011°44'611.2
2017-Jul-16 15:30N 65°08' E 011°49'611.3
2017-Jul-16 15:00N 65°13' E 011°54'611.2
2017-Jul-16 14:29N 65°19' E 011°59'4 8.4
2017-Jul-16 14:01N 65°23' E 011°59'510.4
2017-Jul-16 13:30N 65°28' E 011°57'511.1
2017-Jul-16 13:00N 65°33' E 012°03'510.8
2017-Jul-16 12:30N 65°37' E 012°11'511.2
2017-Jul-16 12:00N 65°42' E 012°16'611.3
2017-Jul-16 11:30N 65°48' E 012°20'510.9
2017-Jul-16 11:00N 65°53' E 012°22'510.4
2017-Jul-16 10:30N 65°58' E 012°27'510.6
2017-Jul-16 10:00N 66°02' E 012°35'510.7
2017-Jul-16 09:30N 66°06' E 012°44'510.6
2017-Jul-16 09:00N 66°11' E 012°51'510.8
2017-Jul-16 08:30N 66°16' E 012°55'610.9
2017-Jul-16 08:00N 66°21' E 012°57'510.2
2017-Jul-16 07:30N 66°26' E 012°59'510.4
2017-Jul-16 07:00N 66°31' E 012°58'5 9.3
2017-Jul-16 06:30N 66°35' E 013°05'510.5
2017-Jul-16 06:00N 66°40' E 013°08'510.1
2017-Jul-16 05:30N 66°45' E 013°12'510.2
2017-Jul-16 05:00N 66°50' E 013°16'510.4
2017-Jul-16 04:30N 66°54' E 013°25'4 9.1
2017-Jul-16 04:00N 66°58' E 013°30'611.2
2017-Jul-16 03:30N 67°01' E 013°42'511.2
2017-Jul-16 03:00N 67°04' E 013°54'510.7
2017-Jul-16 02:30N 67°08' E 014°02'510.8
2017-Jul-16 02:00N 67°13' E 014°08'611.5
2017-Jul-16 01:30N 67°18' E 014°16'611.2
2017-Jul-16 01:00N 67°23' E 014°24'510.1
2017-Jul-16 00:30N 67°28' E 014°24'510.7
2017-Jul-16 00:00N 67°33' E 014°21'611.0
2017-Jul-15 23:30N 67°38' E 014°18'510.6
2017-Jul-15 23:00N 67°44' E 014°17'611.0
2017-Jul-15 22:30N 67°49' E 014°23'511.1
2017-Jul-15 22:01N 67°54' E 014°29'510.9
2017-Jul-15 21:31N 67°58' E 014°35'611.0
2017-Jul-15 21:00N 68°03' E 014°42'510.8
2017-Jul-15 20:30N 68°08' E 014°49'510.5
2017-Jul-15 20:00N 68°13' E 014°55'510.9
2017-Jul-15 19:30N 68°18' E 014°58'510.6
2017-Jul-15 19:00N 68°23' E 015°05'510.4
2017-Jul-15 18:30N 68°27' E 015°12'5 9.4
2017-Jul-15 18:00N 68°32' E 015°09'510.9
2017-Jul-15 17:30N 68°37' E 015°17'510.8
2017-Jul-15 17:00N 68°41' E 015°26'4 7.1
2017-Jul-15 16:30N 68°44' E 015°31'0 0.0
2017-Jul-15 16:00N 68°44' E 015°31'0 0.0
2017-Jul-15 15:30N 68°44' E 015°31'0 0.0
2017-Jul-15 15:00N 68°44' E 015°31'0 0.0
2017-Jul-15 14:00N 68°44' E 015°31'0 0.8
2017-Jul-15 13:30N 68°44' E 015°30'4 8.3
2017-Jul-15 13:00N 68°48' E 015°26'5 9.9
2017-Jul-15 12:30N 68°52' E 015°31'5 9.6
2017-Jul-15 12:00N 68°57' E 015°36'4 7.3
2017-Jul-15 11:30N 68°59' E 015°45'511.0
2017-Jul-15 11:00N 68°58' E 015°60'612.0
2017-Jul-15 10:30N 68°56' E 016°15'612.3
2017-Jul-15 10:00N 68°52' E 016°29'5 9.9
2017-Jul-15 09:30N 68°54' E 016°42'510.9
2017-Jul-15 09:00N 68°57' E 016°56'611.3
2017-Jul-15 08:30N 68°59' E 017°10'510.8
2017-Jul-15 08:00N 69°03' E 017°20'510.9
2017-Jul-15 07:30N 69°06' E 017°32'611.5
2017-Jul-15 07:00N 69°09' E 017°47'611.6
2017-Jul-15 06:30N 69°12' E 018°01'510.2
2017-Jul-15 06:00N 69°17' E 017°58'510.7
2017-Jul-15 05:30N 69°21' E 018°06'611.2
2017-Jul-15 05:00N 69°27' E 018°07'510.9
2017-Jul-15 04:30N 69°30' E 018°19'611.7
2017-Jul-15 04:00N 69°32' E 018°35'611.1
2017-Jul-15 03:29N 69°35' E 018°50'4 7.4
2017-Jul-15 02:59N 69°38' E 018°57'0 0.0
2017-Jul-15 02:29N 69°38' E 018°57'0 0.0
2017-Jul-15 02:00N 69°38' E 018°57'0 0.0
2017-Jul-15 01:30N 69°38' E 018°57'0 0.0
2017-Jul-15 01:00N 69°38' E 018°57'0 0.0
2017-Jul-15 00:28N 69°38' E 018°57'0 0.0
2017-Jul-14 23:58N 69°38' E 018°57'0 0.0
2017-Jul-14 23:28N 69°38' E 018°57'0 0.0
2017-Jul-14 22:59N 69°38' E 018°57'0 0.0
2017-Jul-14 22:29N 69°38' E 018°57'  
Track history (hours):
 
Tides and Currents Weather Stations Pressure Air Temp Water Temp Dewpoint Dewpoint Depression Visibility Wind Speed Wind Dir Waves Ship Positions

Vidfoss

Last reported at 2017-Jul-24 22:26 UTC. Time now 2017-Jul-24 22:43 UTC.
Position N 62°10' W 006°10'.

Length 93 m; draft 4.2 m.

Type: Cargo ship. MMSI: 305846000.

Date/timePositionNaut miles runAvg speedWind from/ knotsBaromVisibWave heightAir tempDewpointWater temp
2017-Jul-24 22:26N 62°10' W 006°10'512.0
2017-Jul-24 22:00N 62°09' W 006°21'612.3
2017-Jul-24 21:29N 62°10' W 006°34'4 0.4
2017-Jul-24 11:04N 62°15' W 006°38'1 7.3
2017-Jul-24 10:55N 62°13' W 006°38'3 6.8
2017-Jul-24 10:30N 62°11' W 006°35'4 8.5
2017-Jul-24 10:00N 62°08' W 006°29'611.9
2017-Jul-24 09:30N 62°04' W 006°19'612.4
2017-Jul-24 09:00N 61°59' W 006°10'612.4
2017-Jul-24 08:30N 61°55' W 006°02'610.9
2017-Jul-24 08:00N 61°50' W 005°55'610.7
2017-Jul-24 07:29N 61°46' W 005°47'  
2017-Jul-21 22:25N 52°31' E 003°53'512.2
2017-Jul-21 22:00N 52°31' E 004°01'612.1
2017-Jul-21 21:30N 52°31' E 004°11'612.2
2017-Jul-21 21:00N 52°30' E 004°20'611.8
2017-Jul-21 20:30N 52°28' E 004°30'4 7.6
2017-Jul-21 20:01N 52°28' E 004°36'0 0.0
2017-Jul-21 19:31N 52°28' E 004°36'1 2.8
2017-Jul-21 19:00N 52°28' E 004°38'1 1.8
2017-Jul-21 18:28N 52°28' E 004°40'0 0.0
2017-Jul-21 17:58N 52°28' E 004°40'0 0.0
2017-Jul-21 17:25N 52°28' E 004°40'0 0.0
2017-Jul-21 16:58N 52°28' E 004°40'0 0.0
2017-Jul-21 16:29N 52°28' E 004°40'0 0.0
2017-Jul-21 15:59N 52°28' E 004°40'0 0.0
2017-Jul-21 15:29N 52°28' E 004°40'0 0.0
2017-Jul-21 15:00N 52°28' E 004°40'0 0.0
2017-Jul-21 14:30N 52°28' E 004°40'0 0.0
2017-Jul-21 14:00N 52°28' E 004°40'0 0.0
2017-Jul-21 13:28N 52°28' E 004°40'0 0.0
2017-Jul-21 12:58N 52°28' E 004°40'0 0.0
2017-Jul-21 11:56N 52°28' E 004°40'0 0.0
2017-Jul-21 11:29N 52°28' E 004°40'0 0.0
2017-Jul-21 10:59N 52°28' E 004°40'0 0.0
2017-Jul-21 10:30N 52°28' E 004°40'0 0.0
2017-Jul-21 10:00N 52°28' E 004°40'0 0.0
2017-Jul-21 09:30N 52°28' E 004°40'0 0.0
2017-Jul-21 09:00N 52°28' E 004°40'0 0.0
2017-Jul-21 08:28N 52°28' E 004°40'0 0.0
2017-Jul-21 07:55N 52°28' E 004°40'0 0.0
2017-Jul-21 07:28N 52°28' E 004°40'0 0.0
2017-Jul-21 06:59N 52°28' E 004°40'0 0.0
2017-Jul-21 06:29N 52°28' E 004°40'0 0.0
2017-Jul-21 05:59N 52°28' E 004°40'0 0.0
2017-Jul-21 05:30N 52°28' E 004°40'0 0.0
2017-Jul-21 05:00N 52°28' E 004°40'0 0.2
2017-Jul-21 04:30N 52°28' E 004°40'0 0.0
2017-Jul-21 04:00N 52°28' E 004°40'0 0.0
2017-Jul-21 03:30N 52°28' E 004°40'0 0.0
2017-Jul-21 02:30N 52°28' E 004°40'0 0.0
2017-Jul-21 02:00N 52°28' E 004°40'0 0.0
2017-Jul-21 01:30N 52°28' E 004°40'0 0.0
2017-Jul-21 01:00N 52°28' E 004°40'0 0.0
2017-Jul-21 00:30N 52°28' E 004°40'0 0.0
2017-Jul-21 00:00N 52°28' E 004°40'0 0.0
2017-Jul-20 23:30N 52°28' E 004°40'0 0.0
2017-Jul-20 23:00N 52°28' E 004°40'0 0.0
2017-Jul-20 22:30N 52°28' E 004°40'0 0.0
2017-Jul-20 22:00N 52°28' E 004°40'0 0.0
2017-Jul-20 21:30N 52°28' E 004°40'0 0.6
2017-Jul-20 21:00N 52°28' E 004°39'2 4.1
2017-Jul-20 20:30N 52°28' E 004°36'2 4.2
2017-Jul-20 20:00N 52°28' E 004°33'510.2
2017-Jul-20 19:30N 52°32' E 004°29'611.8
2017-Jul-20 19:00N 52°38' E 004°29'611.8
2017-Jul-20 18:28N 52°45' E 004°30'811.6
2017-Jul-20 17:49N 52°52' E 004°31'411.4
2017-Jul-20 17:30N 52°56' E 004°31'32610.6
2017-Jul-19 10:47N 58°22' E 005°10'411.5
2017-Jul-19 10:28N 58°25' E 005°09'511.3
2017-Jul-19 10:01N 58°30' E 005°08'611.5
2017-Jul-19 09:30N 58°36' E 005°07'611.6
2017-Jul-19 09:01N 58°42' E 005°04'611.6
2017-Jul-19 08:30N 58°47' E 005°03'611.8
2017-Jul-19 08:01N 58°53' E 005°01'611.9
2017-Jul-19 07:31N 58°59' E 004°60'611.6
2017-Jul-19 07:00N 59°05' E 004°58'611.5
2017-Jul-19 06:30N 59°11' E 004°57'611.7
2017-Jul-19 06:00N 59°16' E 004°58'611.8
2017-Jul-19 05:30N 59°22' E 004°57'611.9
2017-Jul-19 05:00N 59°28' E 004°57'611.8
2017-Jul-19 04:30N 59°34' E 004°58'611.7
2017-Jul-19 04:00N 59°40' E 004°58'611.6
2017-Jul-19 03:29N 59°46' E 004°58'611.8
2017-Jul-19 03:00N 59°52' E 004°58'611.8
2017-Jul-19 02:30N 59°58' E 004°58'5 9.7
2017-Jul-19 02:00N 60°02' E 005°02'510.1
2017-Jul-19 01:30N 60°04' E 005°11'2 3.5
2017-Jul-19 01:00N 60°06' E 005°13'0 0.0
2017-Jul-19 00:30N 60°06' E 005°13'1 1.0
2017-Jul-19 00:01N 60°06' E 005°12'4 8.4
2017-Jul-18 23:31N 60°05' E 005°04'4 7.3
2017-Jul-18 22:59N 60°09' E 005°05'510.2
2017-Jul-18 22:30N 60°13' E 005°10'611.5
2017-Jul-18 22:00N 60°19' E 005°12'611.2
2017-Jul-18 21:31N 60°24' E 005°07'611.5
2017-Jul-18 21:00N 60°29' E 004°60'612.0
2017-Jul-18 20:30N 60°34' E 004°55'612.0
2017-Jul-18 20:01N 60°40' E 004°51'612.0
2017-Jul-18 19:30N 60°45' E 004°47'610.9
2017-Jul-18 19:00N 60°51' E 004°46'611.7
2017-Jul-18 18:30N 60°57' E 004°45'611.9
2017-Jul-18 18:00N 61°03' E 004°44'611.8
2017-Jul-18 17:30N 61°08' E 004°45'611.2
2017-Jul-18 17:00N 61°14' E 004°43'611.4
2017-Jul-18 16:30N 61°19' E 004°48'611.5
2017-Jul-18 16:00N 61°25' E 004°51'611.3
2017-Jul-18 15:30N 61°29' E 004°59'510.8
2017-Jul-18 15:00N 61°34' E 004°58'1110.6
2017-Jul-18 14:00N 61°45' E 004°59'611.4
2017-Jul-18 13:30N 61°49' E 005°08'5 9.3
2017-Jul-18 12:59N 61°52' E 005°16'510.0
2017-Jul-18 12:30N 61°55' E 005°07'2 3.3
2017-Jul-18 12:00N 61°56' E 005°08'0 0.0
2017-Jul-18 11:30N 61°56' E 005°08'0 0.2
2017-Jul-18 11:00N 61°56' E 005°08'5 9.3
2017-Jul-18 10:30N 62°01' E 005°09'510.9
2017-Jul-18 10:00N 62°06' E 005°06'510.1
2017-Jul-18 09:30N 62°11' E 005°05'5 9.3
2017-Jul-18 09:00N 62°13' E 005°14'510.5
2017-Jul-18 08:31N 62°11' E 005°24'510.0
2017-Jul-18 08:00N 62°11' E 005°35'510.5
2017-Jul-18 07:30N 62°12' E 005°46'5 9.5
2017-Jul-18 06:59N 62°14' E 005°55'5 9.7
2017-Jul-18 06:30N 62°18' E 006°01'5 9.7
2017-Jul-18 06:00N 62°22' E 006°06'5 9.6
2017-Jul-18 05:30N 62°27' E 006°05'2 4.5
2017-Jul-18 05:00N 62°28' E 006°09'0 0.2
2017-Jul-18 04:30N 62°28' E 006°08'0 0.0
2017-Jul-18 04:00N 62°28' E 006°08'0 0.0
2017-Jul-18 03:30N 62°28' E 006°08'0 0.0
2017-Jul-18 02:59N 62°28' E 006°08'0 0.0
2017-Jul-18 02:30N 62°28' E 006°08'0 0.0
2017-Jul-18 02:00N 62°28' E 006°08'0 0.0
2017-Jul-18 01:30N 62°28' E 006°08'0 0.0
2017-Jul-18 01:00N 62°28' E 006°08'0 0.0
2017-Jul-18 00:30N 62°28' E 006°08'0 0.0
2017-Jul-18 00:00N 62°28' E 006°08'0 0.0
2017-Jul-17 23:30N 62°28' E 006°08'0 0.0
2017-Jul-17 23:00N 62°28' E 006°08'0 0.0
2017-Jul-17 22:30N 62°28' E 006°08'0 0.0
2017-Jul-17 21:59N 62°28' E 006°08'0 0.0
2017-Jul-17 21:30N 62°28' E 006°08'0 0.0
2017-Jul-17 21:00N 62°28' E 006°08'2 3.5
2017-Jul-17 20:30N 62°27' E 006°06'4 8.4
2017-Jul-17 19:59N 62°29' E 006°14'3 6.6
2017-Jul-17 19:30N 62°28' E 006°21'0 0.0
2017-Jul-17 19:00N 62°28' E 006°21'0 0.2
2017-Jul-17 18:30N 62°29' E 006°20'5 9.4
2017-Jul-17 18:00N 62°29' E 006°10'5 9.7
2017-Jul-17 17:30N 62°34' E 006°12'5 9.6
2017-Jul-17 17:01N 62°37' E 006°19'510.5
2017-Jul-17 16:30N 62°38' E 006°31'510.2
2017-Jul-17 16:00N 62°39' E 006°42'510.5
2017-Jul-17 15:30N 62°41' E 006°52'610.1
2017-Jul-17 14:56N 62°46' E 006°57'511.5
2017-Jul-17 14:30N 62°51' E 006°58'2 3.7
2017-Jul-17 14:00N 62°53' E 006°58'0 0.0
2017-Jul-17 13:30N 62°53' E 006°58'0 0.0
2017-Jul-17 13:00N 62°53' E 006°58'0 0.0
2017-Jul-17 12:30N 62°53' E 006°58'0 0.0
2017-Jul-17 12:00N 62°53' E 006°58'0 0.0
2017-Jul-17 11:30N 62°53' E 006°58'2 3.6
2017-Jul-17 11:01N 62°53' E 006°54'4 8.9
2017-Jul-17 10:30N 62°58' E 006°52'4 8.9
2017-Jul-17 10:00N 63°00' E 007°01'5 9.3
2017-Jul-17 09:30N 63°02' E 007°10'5 9.6
2017-Jul-17 09:00N 63°03' E 007°20'5 9.8
2017-Jul-17 08:30N 63°06' E 007°30'510.6
2017-Jul-17 08:01N 63°09' E 007°39'510.8
2017-Jul-17 07:30N 63°12' E 007°50'510.6
2017-Jul-17 07:00N 63°14' E 007°60'510.6
2017-Jul-17 06:30N 63°17' E 008°10'510.2
2017-Jul-17 06:00N 63°20' E 008°19'510.3
2017-Jul-17 05:30N 63°23' E 008°28'610.9
2017-Jul-17 05:00N 63°26' E 008°39'611.3
2017-Jul-17 04:30N 63°27' E 008°51'611.2
2017-Jul-17 04:00N 63°29' E 009°03'510.7
2017-Jul-17 03:30N 63°32' E 009°13'510.8
2017-Jul-17 03:00N 63°35' E 009°24'510.4
2017-Jul-17 02:30N 63°39' E 009°29'611.7
2017-Jul-17 02:00N 63°45' E 009°32'611.1
2017-Jul-17 01:30N 63°50' E 009°37'611.5
2017-Jul-17 01:00N 63°54' E 009°46'611.6
2017-Jul-17 00:30N 64°00' E 009°47'610.8
2017-Jul-17 00:00N 64°05' E 009°54'611.4
2017-Jul-16 23:30N 64°08' E 010°05'611.3
2017-Jul-16 23:00N 64°13' E 010°12'510.6
2017-Jul-16 22:30N 64°17' E 010°20'610.8
2017-Jul-16 22:00N 64°22' E 010°23'511.1
2017-Jul-16 21:30N 64°27' E 010°27'510.0
2017-Jul-16 21:00N 64°32' E 010°32'510.3
2017-Jul-16 20:30N 64°36' E 010°40'510.6
2017-Jul-16 20:00N 64°40' E 010°47'510.9
2017-Jul-16 19:30N 64°44' E 010°56'611.3
2017-Jul-16 19:00N 64°48' E 011°06'510.7
2017-Jul-16 18:30N 64°52' E 011°14'0 0.1
2017-Jul-16 18:01N 64°52' E 011°14'1 1.6
2017-Jul-16 17:31N 64°52' E 011°16'510.8
2017-Jul-16 17:00N 64°56' E 011°25'611.1
2017-Jul-16 16:30N 64°59' E 011°35'510.4
2017-Jul-16 16:00N 65°03' E 011°44'611.2
2017-Jul-16 15:30N 65°08' E 011°49'611.3
2017-Jul-16 15:00N 65°13' E 011°54'611.2
2017-Jul-16 14:29N 65°19' E 011°59'4 8.4
2017-Jul-16 14:01N 65°23' E 011°59'510.4
2017-Jul-16 13:30N 65°28' E 011°57'511.1
2017-Jul-16 13:00N 65°33' E 012°03'510.8
2017-Jul-16 12:30N 65°37' E 012°11'511.2
2017-Jul-16 12:00N 65°42' E 012°16'611.3
2017-Jul-16 11:30N 65°48' E 012°20'510.9
2017-Jul-16 11:00N 65°53' E 012°22'510.4
2017-Jul-16 10:30N 65°58' E 012°27'510.6
2017-Jul-16 10:00N 66°02' E 012°35'510.7
2017-Jul-16 09:30N 66°06' E 012°44'510.6
2017-Jul-16 09:00N 66°11' E 012°51'510.8
2017-Jul-16 08:30N 66°16' E 012°55'610.9
2017-Jul-16 08:00N 66°21' E 012°57'510.2
2017-Jul-16 07:30N 66°26' E 012°59'510.4
2017-Jul-16 07:00N 66°31' E 012°58'5 9.3
2017-Jul-16 06:30N 66°35' E 013°05'510.5
2017-Jul-16 06:00N 66°40' E 013°08'510.1
2017-Jul-16 05:30N 66°45' E 013°12'510.2
2017-Jul-16 05:00N 66°50' E 013°16'510.4
2017-Jul-16 04:30N 66°54' E 013°25'4 9.1
2017-Jul-16 04:00N 66°58' E 013°30'611.2
2017-Jul-16 03:30N 67°01' E 013°42'511.2
2017-Jul-16 03:00N 67°04' E 013°54'510.7
2017-Jul-16 02:30N 67°08' E 014°02'510.8
2017-Jul-16 02:00N 67°13' E 014°08'611.5
2017-Jul-16 01:30N 67°18' E 014°16'611.2
2017-Jul-16 01:00N 67°23' E 014°24'510.1
2017-Jul-16 00:30N 67°28' E 014°24'510.7
2017-Jul-16 00:00N 67°33' E 014°21'611.0
2017-Jul-15 23:30N 67°38' E 014°18'510.6
2017-Jul-15 23:00N 67°44' E 014°17'611.0
2017-Jul-15 22:30N 67°49' E 014°23'511.1
2017-Jul-15 22:01N 67°54' E 014°29'510.9
2017-Jul-15 21:31N 67°58' E 014°35'611.0
2017-Jul-15 21:00N 68°03' E 014°42'510.8
2017-Jul-15 20:30N 68°08' E 014°49'510.5
2017-Jul-15 20:00N 68°13' E 014°55'510.9
2017-Jul-15 19:30N 68°18' E 014°58'510.6
2017-Jul-15 19:00N 68°23' E 015°05'510.4
2017-Jul-15 18:30N 68°27' E 015°12'5 9.4
2017-Jul-15 18:00N 68°32' E 015°09'510.9
2017-Jul-15 17:30N 68°37' E 015°17'510.8
2017-Jul-15 17:00N 68°41' E 015°26'4 7.1
2017-Jul-15 16:30N 68°44' E 015°31'0 0.0
2017-Jul-15 16:00N 68°44' E 015°31'0 0.0
2017-Jul-15 15:30N 68°44' E 015°31'0 0.0
2017-Jul-15 15:00N 68°44' E 015°31'0 0.0
2017-Jul-15 14:00N 68°44' E 015°31'0 0.8
2017-Jul-15 13:30N 68°44' E 015°30'4 8.3
2017-Jul-15 13:00N 68°48' E 015°26'5 9.9
2017-Jul-15 12:30N 68°52' E 015°31'5 9.6
2017-Jul-15 12:00N 68°57' E 015°36'4 7.3
2017-Jul-15 11:30N 68°59' E 015°45'511.0
2017-Jul-15 11:00N 68°58' E 015°60'612.0
2017-Jul-15 10:30N 68°56' E 016°15'612.3
2017-Jul-15 10:00N 68°52' E 016°29'5 9.9
2017-Jul-15 09:30N 68°54' E 016°42'510.9
2017-Jul-15 09:00N 68°57' E 016°56'611.3
2017-Jul-15 08:30N 68°59' E 017°10'510.8
2017-Jul-15 08:00N 69°03' E 017°20'510.9
2017-Jul-15 07:30N 69°06' E 017°32'611.5
2017-Jul-15 07:00N 69°09' E 017°47'611.6
2017-Jul-15 06:30N 69°12' E 018°01'510.2
2017-Jul-15 06:00N 69°17' E 017°58'510.7
2017-Jul-15 05:30N 69°21' E 018°06'611.2
2017-Jul-15 05:00N 69°27' E 018°07'510.9
2017-Jul-15 04:30N 69°30' E 018°19'611.7
2017-Jul-15 04:00N 69°32' E 018°35'611.1
2017-Jul-15 03:29N 69°35' E 018°50'4 7.4
2017-Jul-15 02:59N 69°38' E 018°57'0 0.0
2017-Jul-15 02:29N 69°38' E 018°57'0 0.0
2017-Jul-15 02:00N 69°38' E 018°57'0 0.0
2017-Jul-15 01:30N 69°38' E 018°57'0 0.0
2017-Jul-15 01:00N 69°38' E 018°57'0 0.0
2017-Jul-15 00:28N 69°38' E 018°57'0 0.0
2017-Jul-14 23:58N 69°38' E 018°57'0 0.0
2017-Jul-14 23:28N 69°38' E 018°57'0 0.0
2017-Jul-14 22:59N 69°38' E 018°57'0 0.0
2017-Jul-14 22:29N 69°38' E 018°57'  

Dump ship's entire track history